Latest Weather Observations for Hay Point

IDQ60801

Issued at 1:36 am EST Wednesday 29 March 2017 (issued every 30 minutes, with the page automatically refreshed every 10 minutes)

About weather observations | Map of weather stations | Latest weather observations for QLD | Other Formats
Station Details ID: 033317 Name: HAY POINT Lat: -21.29 Lon: 149.30 Height: 7.0 m
Data from the previous 72 hours. | See also: Recent months for locations in Queensland
Date/Time
EST
Temp
°C
App
Temp
°C
Dew
Point
°C
Rel
Hum
%
Delta-T
°C
Wind Press
QNH
hPa
Press
MSL
hPa
Rain since
9am
mm
Dir  Spd
km/h
Gust
km/h
Spd
kts
Gust
kts
29/01:30am - - - - - NE 74 95 40 51 - - -
29/01:00am - - - - - NNE 83 102 45 55 - - -
29/12:30am - - - - - NE 70 93 38 50 - - -
29/12:28am - - - - - NE 74 102 40 55 - - -
29/12:24am - - - - - NE 74 102 40 55 - - -
29/12:21am - - - - - NE 74 102 40 55 - - -
29/12:19am - - - - - NE 69 100 37 54 - - -
29/12:07am - - - - - NNE 65 83 35 45 - - -
29/12:00am - - - - - NE 69 83 37 45 - - -
 
Date/Time
EST
Temp
°C
App
Temp
°C
Dew
Point
°C
Rel
Hum
%
Delta-T
°C
Wind Press
QNH
hPa
Press
MSL
hPa
Rain since
9am
mm
Dir  Spd
km/h
Gust
km/h
Spd
kts
Gust
kts
28/11:30pm - - - - - NE 70 100 38 54 - - -
28/11:26pm - - - - - NE 69 93 37 50 - - -
28/11:00pm - - - - - ENE 61 78 33 42 - - -
28/10:30pm - - - - - NE 72 87 39 47 - - -
28/10:07pm - - - - - ENE 70 89 38 48 - - -
28/10:00pm - - - - - NE 70 85 38 46 - - -
28/09:58pm - - - - - NE 72 91 39 49 - - -
28/09:30pm - - - - - ENE 72 85 39 46 - - -
28/09:13pm - - - - - NE 78 96 42 52 - - -
28/09:00pm - - - - - NE 80 93 43 50 - - -
28/08:38pm - - - - - NE 74 93 40 50 - - -
28/08:30pm - - - - - NE 72 85 39 46 - - -
28/08:04pm - - - - - NE 74 93 40 50 - - -
28/08:00pm - - - - - NE 78 93 42 50 - - -
28/07:41pm - - - - - ENE 74 93 40 50 - - -
28/07:30pm - - - - - ENE 76 89 41 48 - - -
28/07:00pm - - - - - ENE 78 98 42 53 - - -
28/06:54pm - - - - - ENE 70 89 38 48 - - -
28/06:30pm - - - - - ENE 70 85 38 46 - - -
28/06:06pm - - - - - ENE 61 80 33 43 - - -
28/06:00pm - - - - - ENE 61 74 33 40 - - -
28/05:30pm - - - - - ENE 69 78 37 42 - - -
28/05:00pm - - - - - ENE 76 96 41 52 - - -
28/04:30pm - - - - - ENE 76 96 41 52 - - -
28/04:01pm - - - - - ENE 69 87 37 47 - - -
28/04:00pm - - - - - ENE 67 85 36 46 - - -
28/03:57pm - - - - - ENE 70 91 38 49 - - -
28/03:30pm - - - - - ENE 83 102 45 55 - - -
28/03:00pm - - - - - E 76 96 41 52 - - -
28/02:30pm - - - - - ENE 74 93 40 50 - - -
28/02:00pm - - - - - ENE 74 100 40 54 - - -
28/01:51pm - - - - - ENE 74 93 40 50 - - -
28/01:30pm - - - - - ENE 72 89 39 48 - - -
28/01:00pm - - - - - ENE 72 95 39 51 - - -
28/12:30pm - - - - - ENE 76 96 41 52 - - -
28/12:03pm - - - - - E 72 91 39 49 - - -
28/12:00pm - - - - - E 72 89 39 48 - - -
28/11:30am - - - - - E 70 89 38 48 - - -
28/11:10am - - - - - E 72 95 39 51 - - -
28/11:00am - - - - - E 72 89 39 48 - - -
28/10:30am - - - - - E 72 96 39 52 - - -
28/10:00am - - - - - E 69 89 37 48 - - -
28/09:30am - - - - - E 70 89 38 48 - - -
28/09:00am - - - - - E 78 96 42 52 - - -
28/08:31am - - - - - E 72 96 39 52 - - -
28/08:30am - - - - - E 72 89 39 48 - - -
28/08:06am - - - - - ESE 69 93 37 50 - - -
28/08:00am - - - - - ESE 69 82 37 44 - - -
28/07:30am - - - - - ESE 69 91 37 49 - - -
28/07:00am - - - - - ESE 74 93 40 50 - - -
28/06:30am - - - - - ESE 76 96 41 52 - - -
28/06:00am - - - - - E 74 95 40 51 - - -
28/05:43am - - - - - SE 61 106 33 57 - - -
28/05:31am - - - - - SE 65 83 35 45 - - -
28/05:30am - - - - - SE 67 83 36 45 - - -
28/05:00am - - - - - ESE 69 91 37 49 - - -
28/04:30am - - - - - SE 61 82 33 44 - - -
28/04:00am - - - - - SE 59 96 32 52 - - -
28/03:30am - - - - - SE 67 96 36 52 - - -
28/03:00am - - - - - SE 63 87 34 47 - - -
28/02:30am - - - - - SE 67 89 36 48 - - -
28/02:00am - - - - - SE 65 89 35 48 - - -
28/01:30am - - - - - SE 61 83 33 45 - - -
28/01:07am - - - - - ESE 72 91 39 49 - - -
28/01:00am - - - - - ESE 70 85 38 46 - - -
28/12:35am - - - - - SE 61 80 33 43 - - -
28/12:30am - - - - - SE 65 80 35 43 - - -
28/12:00am - - - - - SE 57 83 31 45 - - -
 
Date/Time
EST
Temp
°C
App
Temp
°C
Dew
Point
°C
Rel
Hum
%
Delta-T
°C
Wind Press
QNH
hPa
Press
MSL
hPa
Rain since
9am
mm
Dir  Spd
km/h
Gust
km/h
Spd
kts
Gust
kts
27/11:30pm - - - - - SE 57 82 31 44 - - -
27/11:00pm - - - - - SE 65 83 35 45 - - -
27/10:30pm - - - - - SE 65 91 35 49 - - -
27/10:12pm - - - - - SE 65 83 35 45 - - -
27/10:00pm - - - - - SE 67 82 36 44 - - -
27/09:30pm - - - - - SE 59 78 32 42 - - -
27/09:00pm - - - - - ESE 65 85 35 46 - - -
27/08:30pm - - - - - SE 61 80 33 43 - - -
27/08:05pm - - - - - SE 56 74 30 40 - - -
27/08:00pm - - - - - SE 65 76 35 41 - - -
27/07:30pm - - - - - SE 63 80 34 43 - - -
27/07:00pm - - - - - SE 54 76 29 41 - - -
27/06:30pm - - - - - SE 56 83 30 45 - - -
27/06:01pm - - - - - SSE 63 91 34 49 - - -
27/06:00pm - - - - - SSE 61 78 33 42 - - -
27/05:34pm - - - - - SSE 61 85 33 46 - - -
27/05:30pm - - - - - SSE 61 76 33 41 - - -
27/05:01pm - - - - - SSE 72 91 39 49 - - -
27/05:00pm - - - - - SSE 70 91 38 49 - - -
27/04:53pm - - - - - SSE 50 91 27 49 - - -
27/04:50pm - - - - - SSE 50 83 27 45 - - -
27/04:49pm - - - - - SSE 50 76 27 41 - - -
27/04:47pm - - - - - SSE 57 83 31 45 - - -
27/04:42pm - - - - - SSE 67 85 36 46 - - -
27/04:30pm - - - - - SSE 69 83 37 45 - - -
27/04:08pm - - - - - SSE 69 87 37 47 - - -
27/04:00pm - - - - - SSE 65 82 35 44 - - -
27/03:30pm - - - - - SSE 69 83 37 45 - - -
27/03:00pm - - - - - SSE 61 76 33 41 - - -
27/02:34pm - - - - - SE 65 83 35 45 - - -
27/02:30pm - - - - - SE 65 83 35 45 - - -
27/02:28pm - - - - - SE 61 83 33 45 - - -
27/02:00pm - - - - - SE 52 76 28 41 - - -
27/01:30pm - - - - - SE 52 70 28 38 - - -
27/01:02pm - - - - - SE 56 74 30 40 - - -
27/01:00pm - - - - - SE 57 74 31 40 - - -
27/12:30pm - - - - - SE 52 87 28 47 - - -
27/12:28pm - - - - - SE 54 87 29 47 - - -
27/12:25pm - - - - - SSE 61 87 33 47 - - -
27/12:02pm - - - - - SSE 59 85 32 46 - - -
27/12:00pm - - - - - SSE 57 74 31 40 - - -
27/11:41am - - - - - SSE 56 82 30 44 - - -
27/11:30am - - - - - SSE 56 70 30 38 - - -
27/11:15am - - - - - SSE 57 76 31 41 - - -
27/11:00am - - - - - SSE 57 72 31 39 - - -
27/10:38am - - - - - SSE 57 76 31 41 - - -
27/10:30am - - - - - SSE 61 76 33 41 - - -
27/10:00am - - - - - SSE 56 78 30 42 - - -
27/09:39am - - - - - SSE 57 76 31 41 - - -
27/09:30am - - - - - SE 59 72 32 39 - - -
27/09:12am - - - - - SE 56 74 30 40 - - -
27/09:00am - - - - - SSE 56 69 30 37 - - -
27/08:30am - - - - - SSE 61 74 33 40 - - -
27/08:00am - - - - - SSE 61 76 33 41 - - -
27/07:51am - - - - - SE 56 76 30 41 - - -
27/07:30am - - - - - SE 57 70 31 38 - - -
27/07:15am - - - - - SE 50 76 27 41 - - -
27/07:00am - - - - - SSE 54 67 29 36 - - -
27/06:30am - - - - - SSE 59 78 32 42 - - -
27/06:08am - - - - - SSE 54 72 29 39 - - -
27/06:00am - - - - - SSE 52 61 28 33 - - -
27/05:30am - - - - - SSE 63 78 34 42 - - -
27/05:02am - - - - - SSE 56 74 30 40 - - -
27/05:00am - - - - - SSE 54 70 29 38 - - -
27/04:32am - - - - - SSE 50 70 27 38 - - -
27/04:30am - - - - - SSE 48 59 26 32 - - -
27/04:04am - - - - - SSE 57 76 31 41 - - -
27/04:00am - - - - - SSE 57 72 31 39 - - -
27/03:44am - - - - - SSE 59 89 32 48 - - -
27/03:30am - - - - - S 48 72 26 39 - - -
27/03:12am - - - - - S 48 80 26 43 - - -
27/03:00am - - - - - S 44 59 24 32 - - -
27/02:30am - - - - - S 46 67 25 36 - - -
27/02:15am - - - - - SSE 48 67 26 36 - - -
27/02:00am - - - - - SSE 50 63 27 34 - - -
27/01:30am - - - - - SSE 54 72 29 39 - - -
27/01:17am - - - - - SSE 50 72 27 39 - - -
27/01:00am - - - - - SSE 50 67 27 36 - - -
27/12:30am - - - - - SSE 54 67 29 36 - - -
27/12:19am - - - - - SSE 54 72 29 39 - - -
27/12:00am - - - - - SSE 57 72 31 39 - - -
 
Date/Time
EST
Temp
°C
App
Temp
°C
Dew
Point
°C
Rel
Hum
%
Delta-T
°C
Wind Press
QNH
hPa
Press
MSL
hPa
Rain since
9am
mm
Dir  Spd
km/h
Gust
km/h
Spd
kts
Gust
kts
26/11:30pm - - - - - SSE 59 72 32 39 - - -
26/11:00pm - - - - - SSE 56 72 30 39 - - -
26/10:30pm - - - - - SSE 56 76 30 41 - - -
26/10:27pm - - - - - SSE 48 76 26 41 - - -
26/10:23pm - - - - - SSE 37 70 20 38 - - -
26/10:00pm - - - - - SSE 41 54 22 29 - - -
26/09:56pm - - - - - SSE 43 61 23 33 - - -
26/09:30pm - - - - - SSE 50 63 27 34 - - -
26/09:13pm - - - - - SE 57 78 31 42 - - -
26/09:00pm - - - - - SSE 56 72 30 39 - - -
26/08:36pm - - - - - SSE 52 70 28 38 - - -
26/08:30pm - - - - - SSE 57 72 31 39 - - -
26/08:22pm - - - - - SSE 35 72 19 39 - - -
26/08:20pm - - - - - S 30 48 16 26 - - -
26/08:00pm - - - - - S 35 48 19 26 - - -
26/07:30pm - - - - - SSE 54 74 29 40 - - -
26/07:00pm - - - - - SSE 46 70 25 38 - - -
26/06:30pm - - - - - SSE 50 61 27 33 - - -
26/06:00pm - - - - - SSE 48 61 26 33 - - -
26/05:30pm - - - - - SSE 54 67 29 36 - - -
26/05:06pm - - - - - SSE 54 74 29 40 - - -
26/05:00pm - - - - - SSE 54 70 29 38 - - -
26/04:40pm - - - - - S 46 76 25 41 - - -
26/04:34pm - - - - - S 39 59 21 32 - - -
26/04:30pm - - - - - S 41 57 22 31 - - -
26/04:04pm - - - - - SSE 46 65 25 35 - - -
26/04:00pm - - - - - SSE 48 65 26 35 - - -
26/03:32pm - - - - - SSE 46 65 25 35 - - -
26/03:30pm - - - - - SSE 48 65 26 35 - - -
26/03:26pm - - - - - SSE 46 65 25 35 - - -
26/03:00pm - - - - - S 43 59 23 32 - - -
26/02:30pm - - - - - S 44 57 24 31 - - -
26/02:00pm - - - - - SSE 52 70 28 38 - - -
26/01:30pm - - - - - SSE 54 72 29 39 - - -
26/01:07pm - - - - - SSE 48 67 26 36 - - -
26/01:00pm - - - - - S 52 67 28 36 - - -
26/12:30pm - - - - - SSE 46 65 25 35 - - -
26/12:02pm - - - - - SSE 44 63 24 34 - - -
26/12:00pm - - - - - SSE 44 59 24 32 - - -
26/11:40am - - - - - SSE 43 67 23 36 - - -
26/11:30am - - - - - SSE 44 57 24 31 - - -
26/11:01am - - - - - SSE 46 65 25 35 - - -
26/11:00am - - - - - SSE 48 65 26 35 - - -
26/10:30am - - - - - S 46 63 25 34 - - -
26/10:15am - - - - - SSE 46 69 25 37 - - -
26/10:00am - - - - - SSE 43 57 23 31 - - -
26/09:30am - - - - - S 43 57 23 31 - - -
26/09:09am - - - - - S 39 57 21 31 - - -
26/09:00am - - - - - SSE 41 52 22 28 - - -
26/08:30am - - - - - S 39 52 21 28 - - -
26/08:00am - - - - - S 43 57 23 31 - - -
26/07:30am - - - - - S 39 52 21 28 - - -
26/07:00am - - - - - S 39 52 21 28 - - -
26/06:30am - - - - - S 35 48 19 26 - - -
26/06:00am - - - - - S 33 46 18 25 - - -
26/05:30am - - - - - S 35 54 19 29 - - -
26/05:21am - - - - - S 33 54 18 29 - - -
26/05:00am - - - - - S 35 48 19 26 - - -
26/04:30am - - - - - S 33 44 18 24 - - -
26/04:00am - - - - - S 33 41 18 22 - - -
26/03:32am - - - - - SSE 37 57 20 31 - - -
26/03:30am - - - - - SSE 37 56 20 30 - - -
26/03:00am - - - - - SSE 50 65 27 35 - - -
26/02:30am - - - - - SSE 54 67 29 36 - - -
26/02:00am - - - - - SSE 52 63 28 34 - - -

Other Formats:

Comma delimited format used in spreadsheet applications
http://www.bom.gov.au/fwo/IDQ60801/IDQ60801.99367.axf

JavaScript Object Notation format (JSON) in row-major order
http://www.bom.gov.au/fwo/IDQ60801/IDQ60801.99367.json